Time;durP1;ratioP1;P1;durP2;ratioP2;P2;SDS_P1;SDS_P2;PMS_P1;PMS_P2;Temp;Humidity;BMP_temperature;BMP_pressure;BME280_temperature;BME280_humidity;BME280_pressure;Samples;Min_cycle;Max_cycle;Signal;HPM_P1;HPM_P2
2023/12/21 00:05:42;;;;;;;595.00;556.40;;;7.70;99.90;;;;;;12326478;28;20514;-35
2023/12/21 00:11:45;;;;;;;611.25;571.13;;;7.60;99.90;;;;;;12322250;28;20062;-34
2023/12/21 00:17:47;;;;;;;590.75;552.10;;;7.70;99.90;;;;;;12319058;28;20055;-35
2023/12/21 00:23:49;;;;;;;620.65;579.70;;;7.70;99.90;;;;;;12327424;28;20130;-35
2023/12/21 00:29:51;;;;;;;609.28;569.15;;;7.80;99.90;;;;;;12322377;28;20800;-35
2023/12/21 00:35:53;;;;;;;609.17;569.13;;;7.80;99.90;;;;;;12327877;28;20054;-35
2023/12/21 00:41:55;;;;;;;606.38;566.58;;;7.80;99.90;;;;;;12342534;28;20417;-35
2023/12/21 00:47:57;;;;;;;610.35;570.05;;;7.80;99.90;;;;;;12354396;28;20062;-35
2023/12/21 00:53:59;;;;;;;611.60;571.05;;;7.80;99.90;;;;;;12335293;28;20123;-35
2023/12/21 01:00:02;;;;;;;613.20;572.53;;;7.80;99.90;;;;;;12331462;28;20138;-35
2023/12/21 01:06:04;;;;;;;621.30;580.03;;;7.80;99.90;;;;;;12325091;28;20058;-35
2023/12/21 01:12:06;;;;;;;620.05;578.83;;;7.90;99.90;;;;;;12315847;28;20051;-35
2023/12/21 01:18:08;;;;;;;623.67;582.35;;;7.80;99.90;;;;;;12306978;28;20236;-34
2023/12/21 01:24:11;;;;;;;614.72;573.78;;;7.80;99.90;;;;;;12299389;28;20070;-35
2023/12/21 01:30:13;;;;;;;619.08;578.28;;;7.80;99.90;;;;;;12293147;28;20058;-34
2023/12/21 01:36:15;;;;;;;608.83;568.70;;;7.80;99.90;;;;;;12318638;28;20059;-35
2023/12/21 01:42:16;;;;;;;597.95;558.60;;;7.80;99.90;;;;;;12303649;28;20051;-34
2023/12/21 01:48:21;;;;;;;590.47;551.45;;;7.80;99.90;;;;;;12353928;28;20491;-34
2023/12/21 01:54:23;;;;;;;597.95;558.83;;;7.90;99.90;;;;;;12347840;28;20065;-35
2023/12/21 02:00:25;;;;;;;575.70;538.65;;;7.80;99.90;;;;;;12329213;28;20058;-35
2023/12/21 02:06:27;;;;;;;576.85;539.83;;;7.80;99.90;;;;;;12342356;28;20054;-35
2023/12/21 02:12:29;;;;;;;584.58;546.50;;;7.80;99.90;;;;;;12341044;28;20047;-34
2023/12/21 02:18:31;;;;;;;572.40;535.17;;;7.80;99.90;;;;;;12335355;28;20487;-34
2023/12/21 02:24:33;;;;;;;579.80;542.58;;;7.80;99.90;;;;;;12341126;28;20047;-35
2023/12/21 02:30:35;;;;;;;580.33;542.72;;;7.90;99.90;;;;;;12325456;28;20050;-35
2023/12/21 02:36:37;;;;;;;590.92;553.58;;;7.90;99.90;;;;;;12319401;28;20051;-35
2023/12/21 02:42:39;;;;;;;577.38;540.20;;;7.90;99.90;;;;;;12330320;28;20043;-35
2023/12/21 02:48:41;;;;;;;579.92;542.78;;;8.00;99.90;;;;;;12327766;28;20046;-35
2023/12/21 02:54:43;;;;;;;567.70;531.35;;;8.00;99.90;;;;;;12333982;28;20151;-35
2023/12/21 03:00:45;;;;;;;577.70;541.25;;;7.90;99.90;;;;;;12324349;28;20086;-34
2023/12/21 03:06:47;;;;;;;567.42;531.38;;;8.00;99.90;;;;;;12337006;28;20050;-35
2023/12/21 03:12:49;;;;;;;572.10;535.85;;;8.00;99.90;;;;;;12364799;28;20057;-35
2023/12/21 03:18:51;;;;;;;568.58;531.85;;;8.10;99.90;;;;;;12329123;28;20048;-34
2023/12/21 03:24:53;;;;;;;551.97;516.83;;;8.10;99.90;;;;;;12334874;28;20058;-35
2023/12/21 03:30:55;;;;;;;563.13;527.05;;;8.10;99.90;;;;;;12333236;28;20051;-34
2023/12/21 03:36:57;;;;;;;562.92;527.38;;;8.20;99.90;;;;;;12342195;28;20057;-34
2023/12/21 03:42:59;;;;;;;549.70;515.00;;;8.20;99.90;;;;;;12345445;28;20133;-35
2023/12/21 03:49:01;;;;;;;576.63;539.78;;;8.20;99.90;;;;;;12327906;28;20051;-34
2023/12/21 03:55:04;;;;;;;566.08;530.35;;;8.20;99.90;;;;;;12331913;28;20099;-35
2023/12/21 04:01:06;;;;;;;576.47;540.28;;;8.10;99.90;;;;;;12336245;28;20051;-36
2023/12/21 04:07:08;;;;;;;560.97;525.60;;;8.10;99.90;;;;;;12341537;28;20419;-35
2023/12/21 04:13:10;;;;;;;563.80;528.45;;;8.10;99.90;;;;;;12329301;28;20180;-35
2023/12/21 04:19:12;;;;;;;561.33;526.08;;;8.10;99.90;;;;;;12330990;28;20063;-35
2023/12/21 04:25:14;;;;;;;542.58;508.63;;;8.10;99.90;;;;;;12328179;28;20058;-34
2023/12/21 04:31:20;;;;;;;530.58;497.63;;;8.10;99.90;;;;;;12333817;28;20050;-34
2023/12/21 04:37:22;;;;;;;530.00;497.25;;;8.10;99.90;;;;;;12319128;28;20054;-35
2023/12/21 04:43:24;;;;;;;541.22;507.67;;;8.20;99.90;;;;;;12312163;28;20126;-35
2023/12/21 04:49:27;;;;;;;537.40;504.35;;;8.10;99.90;;;;;;12324817;28;20051;-35
2023/12/21 04:55:29;;;;;;;549.30;515.45;;;8.20;99.90;;;;;;12326323;28;20057;-35
2023/12/21 05:01:31;;;;;;;549.60;515.47;;;8.30;99.90;;;;;;12336929;28;20050;-35
2023/12/21 05:07:33;;;;;;;539.90;507.05;;;8.20;99.90;;;;;;12318813;28;20050;-35
2023/12/21 05:13:35;;;;;;;554.92;520.67;;;8.40;99.90;;;;;;12320119;28;20081;-35
2023/12/21 05:19:37;;;;;;;545.60;511.98;;;8.30;99.90;;;;;;12314128;28;20054;-35
2023/12/21 05:25:40;;;;;;;547.15;512.95;;;8.20;99.90;;;;;;12311815;28;20043;-35
2023/12/21 05:31:42;;;;;;;542.33;508.67;;;8.30;99.90;;;;;;12313966;28;20080;-34
2023/12/21 05:37:44;;;;;;;545.53;511.65;;;8.20;99.90;;;;;;12331726;28;20050;-35
2023/12/21 05:43:46;;;;;;;542.05;508.30;;;8.20;99.90;;;;;;12309233;28;20050;-35
2023/12/21 05:49:48;;;;;;;544.95;511.00;;;8.20;99.90;;;;;;12325151;28;20047;-35
2023/12/21 05:55:50;;;;;;;543.38;509.58;;;8.20;99.90;;;;;;12357857;28;20050;-34
2023/12/21 06:01:52;;;;;;;548.97;514.85;;;8.20;99.90;;;;;;12332859;28;20046;-34
2023/12/21 06:07:54;;;;;;;543.40;509.58;;;8.20;99.90;;;;;;12330548;28;20051;-35
2023/12/21 06:13:56;;;;;;;578.03;541.40;;;8.20;99.90;;;;;;12354259;28;20046;-35
2023/12/21 06:19:58;;;;;;;591.80;554.75;;;8.20;99.90;;;;;;12335113;28;20079;-35
2023/12/21 06:26:00;;;;;;;578.88;542.45;;;8.20;99.90;;;;;;12330402;28;20139;-35
2023/12/21 06:32:04;;;;;;;570.00;533.95;;;8.20;99.90;;;;;;12336378;28;20054;-35
2023/12/21 06:38:06;;;;;;;584.17;547.57;;;8.20;99.90;;;;;;12333191;28;20047;-37
2023/12/21 06:44:10;;;;;;;579.38;543.38;;;8.20;99.90;;;;;;12325145;28;20325;-35
2023/12/21 06:50:13;;;;;;;562.92;528.10;;;8.10;99.90;;;;;;12334222;28;20137;-35
2023/12/21 06:56:17;;;;;;;553.97;519.38;;;8.20;99.90;;;;;;12331764;28;20136;-34
2023/12/21 07:02:35;;;;;;;482.90;453.45;;;8.20;99.90;;;;;;12326261;28;20053;-35
2023/12/21 07:08:37;;;;;;;460.20;431.70;;;8.20;99.90;;;;;;12333422;28;20819;-35
2023/12/21 07:14:39;;;;;;;470.60;441.98;;;8.20;99.90;;;;;;12329700;28;20107;-35
2023/12/21 07:20:41;;;;;;;465.80;437.40;;;8.20;99.90;;;;;;12326555;28;20051;-35
2023/12/21 07:26:44;;;;;;;425.50;399.75;;;8.30;99.90;;;;;;12327793;28;20513;-35
2023/12/21 07:32:46;;;;;;;428.13;402.08;;;8.20;99.90;;;;;;12326738;28;20538;-35
2023/12/21 07:38:48;;;;;;;439.30;412.38;;;8.30;99.90;;;;;;12334431;28;20058;-35
2023/12/21 07:44:50;;;;;;;444.15;416.95;;;8.30;99.90;;;;;;12332416;28;20407;-35
2023/12/21 07:50:52;;;;;;;461.00;432.77;;;8.20;99.90;;;;;;12336014;28;20193;-35
2023/12/21 07:56:54;;;;;;;435.15;408.65;;;8.20;99.90;;;;;;12327107;28;20081;-35
2023/12/21 08:02:56;;;;;;;443.42;415.90;;;8.30;99.90;;;;;;12331102;28;20054;-35
2023/12/21 08:08:58;;;;;;;446.73;418.95;;;8.40;99.90;;;;;;12328386;28;20090;-35
2023/12/21 08:15:00;;;;;;;460.90;432.27;;;8.40;99.90;;;;;;12332582;28;20190;-35
2023/12/21 08:21:02;;;;;;;432.90;406.10;;;8.40;99.90;;;;;;12332771;28;20130;-35
2023/12/21 08:27:06;;;;;;;408.00;382.73;;;8.40;99.90;;;;;;12323522;28;20054;-34
2023/12/21 08:33:07;;;;;;;427.17;400.83;;;8.50;99.90;;;;;;12337158;28;20054;-35
2023/12/21 08:39:09;;;;;;;451.52;423.90;;;8.60;99.90;;;;;;12321852;28;20055;-35
2023/12/21 08:45:12;;;;;;;435.38;408.35;;;8.60;99.90;;;;;;12328002;28;20063;-34
2023/12/21 08:51:14;;;;;;;491.25;460.52;;;8.70;99.90;;;;;;12342744;28;20123;-35
2023/12/21 08:57:21;;;;;;;521.13;488.83;;;8.70;99.90;;;;;;12337751;28;20185;-35
2023/12/21 09:03:23;;;;;;;504.45;473.30;;;8.70;99.90;;;;;;12318874;28;20093;-35
2023/12/21 09:09:25;;;;;;;484.58;454.98;;;8.70;99.90;;;;;;12328950;28;20051;-35
2023/12/21 09:15:28;;;;;;;475.17;445.92;;;8.70;99.90;;;;;;12326695;28;20096;-35
2023/12/21 09:21:30;;;;;;;491.30;461.38;;;8.70;99.90;;;;;;12327941;28;20180;-35
2023/12/21 09:27:34;;;;;;;473.27;444.55;;;8.70;99.90;;;;;;12330018;28;20519;-35
2023/12/21 09:33:38;;;;;;;493.00;463.17;;;8.80;99.90;;;;;;12329216;28;20101;-35
2023/12/21 09:39:40;;;;;;;;;;;8.80;99.90;;;;;;12332844;28;20062;-35
2023/12/21 09:45:45;;;;;;;463.00;434.95;;;8.80;99.90;;;;;;12328525;28;19952;-35
2023/12/21 09:51:49;;;;;;;;;;;8.80;99.90;;;;;;12340523;28;20553;-35
2023/12/21 09:57:51;;;;;;;437.30;410.30;;;8.90;99.90;;;;;;12337113;28;19988;-35
2023/12/21 10:03:53;;;;;;;429.83;403.38;;;8.90;99.90;;;;;;12346503;28;20398;-35
2023/12/21 10:09:57;;;;;;;457.27;429.30;;;8.90;99.90;;;;;;12317918;28;20107;-35
2023/12/21 10:15:59;;;;;;;437.92;410.95;;;9.00;99.90;;;;;;12333830;28;20055;-35
2023/12/21 10:22:02;;;;;;;476.02;447.13;;;9.10;99.90;;;;;;12339910;28;20399;-35
2023/12/21 10:28:04;;;;;;;432.77;405.95;;;9.00;99.90;;;;;;12344008;28;20058;-36
2023/12/21 10:34:09;;;;;;;458.95;430.52;;;9.10;99.90;;;;;;12341930;28;20097;-35
2023/12/21 10:40:13;;;;;;;;;;;9.10;99.90;;;;;;12336284;28;20054;-35
2023/12/21 10:46:17;;;;;;;478.90;449.77;;;9.20;99.90;;;;;;12323621;28;19961;-35
2023/12/21 10:52:21;;;;;;;470.90;441.88;;;9.20;99.90;;;;;;12341648;28;20051;-35
2023/12/21 10:58:26;;;;;;;470.63;441.90;;;9.20;99.90;;;;;;12325311;28;20042;-35
2023/12/21 11:04:28;;;;;;;459.25;431.25;;;9.30;99.90;;;;;;12329715;28;20093;-35
2023/12/21 11:10:32;;;;;;;507.30;476.30;;;9.30;99.90;;;;;;12333669;28;20177;-35
2023/12/21 11:16:42;;;;;;;522.47;490.42;;;9.40;99.90;;;;;;12344303;28;20051;-36
2023/12/21 11:22:45;;;;;;;503.90;472.60;;;9.30;99.90;;;;;;12333142;28;20200;-35
2023/12/21 11:28:49;;;;;;;520.60;488.87;;;9.40;99.90;;;;;;12331290;28;20055;-35
2023/12/21 11:34:52;;;;;;;506.38;475.33;;;9.40;99.90;;;;;;12328420;28;20073;-35
2023/12/21 11:40:58;;;;;;;480.58;451.17;;;9.50;99.90;;;;;;12334567;28;20420;-35
2023/12/21 11:47:01;;;;;;;445.08;417.98;;;9.60;99.90;;;;;;12331225;28;20054;-35
2023/12/21 11:53:11;;;;;;;429.63;403.50;;;9.60;99.90;;;;;;12360287;28;20047;-35
2023/12/21 11:59:16;;;;;;;390.63;366.97;;;9.70;99.90;;;;;;12325783;28;20065;-35
2023/12/21 12:05:24;;;;;;;381.88;358.55;;;9.70;99.90;;;;;;12329363;28;20043;-35
2023/12/21 12:11:26;;;;;;;338.30;317.63;;;9.80;99.90;;;;;;12321098;28;20049;-35
2023/12/21 12:17:28;;;;;;;311.55;292.27;;;9.80;99.90;;;;;;12329632;28;20058;-35
2023/12/21 12:23:30;;;;;;;281.40;264.05;;;9.90;99.90;;;;;;12329782;28;20179;-35
2023/12/21 12:29:32;;;;;;;235.30;220.43;;;9.80;99.90;;;;;;12334595;28;20055;-35
2023/12/21 12:35:37;;;;;;;165.75;154.15;;;9.80;99.90;;;;;;12333006;28;20447;-35
2023/12/21 12:41:39;;;;;;;156.98;146.07;;;10.00;99.90;;;;;;12330693;28;20082;-36
2023/12/21 12:47:41;;;;;;;135.38;125.60;;;10.00;99.90;;;;;;12319259;28;20141;-35
2023/12/21 12:53:43;;;;;;;106.22;98.43;;;10.00;99.90;;;;;;12325474;28;20491;-36
2023/12/21 12:59:45;;;;;;;89.70;82.88;;;10.10;99.90;;;;;;12327885;28;20043;-35
2023/12/21 13:05:47;;;;;;;93.18;85.82;;;10.10;99.90;;;;;;12325603;28;20104;-35
2023/12/21 13:11:54;;;;;;;92.95;85.43;;;10.00;99.90;;;;;;12317373;28;20073;-35
2023/12/21 13:17:57;;;;;;;80.85;74.20;;;9.90;99.90;;;;;;12357539;28;20059;-35
2023/12/21 13:24:01;;;;;;;84.57;77.57;;;10.00;99.90;;;;;;12327752;28;20111;-35
2023/12/21 13:30:03;;;;;;;88.03;81.00;;;10.00;99.90;;;;;;12329816;28;20047;-35
2023/12/21 13:36:06;;;;;;;90.43;83.43;;;10.10;99.90;;;;;;12326080;28;20050;-36
2023/12/21 13:42:09;;;;;;;97.25;89.25;;;10.00;99.90;;;;;;12327302;28;20065;-35
2023/12/21 13:48:11;;;;;;;93.43;85.83;;;10.10;99.90;;;;;;12323828;28;20138;-35
2023/12/21 13:54:18;;;;;;;118.75;109.60;;;10.00;99.90;;;;;;12332010;28;20322;-35
2023/12/21 14:00:22;;;;;;;132.98;123.40;;;9.60;99.90;;;;;;12356056;28;20055;-35
2023/12/21 14:06:24;;;;;;;101.77;94.00;;;9.60;99.90;;;;;;12319061;28;20147;-35
2023/12/21 14:12:26;;;;;;;82.13;75.55;;;9.60;99.90;;;;;;12329024;28;20054;-35
2023/12/21 14:18:28;;;;;;;81.05;74.35;;;9.70;99.90;;;;;;12327839;28;20043;-35
2023/12/21 14:24:30;;;;;;;86.15;79.07;;;9.80;99.90;;;;;;12339088;28;20051;-35
2023/12/21 14:30:32;;;;;;;86.80;79.50;;;9.80;99.90;;;;;;12340488;28;20051;-35
2023/12/21 14:36:34;;;;;;;84.97;77.57;;;9.70;99.90;;;;;;12328961;28;20130;-35
2023/12/21 14:42:38;;;;;;;80.47;73.80;;;9.70;99.90;;;;;;12328932;28;20043;-35
2023/12/21 14:48:40;;;;;;;97.45;89.32;;;9.50;99.90;;;;;;12318152;28;20043;-35
2023/12/21 14:54:42;;;;;;;165.38;152.43;;;8.40;99.90;;;;;;12334019;28;20058;-35
2023/12/21 15:00:43;;;;;;;152.02;140.77;;;6.90;99.90;;;;;;12336404;28;20158;-35
2023/12/21 15:06:45;;;;;;;164.82;152.82;;;6.50;99.90;;;;;;12335940;28;20057;-35
2023/12/21 15:12:47;;;;;;;162.57;150.77;;;6.30;99.90;;;;;;12328782;28;20054;-35
2023/12/21 15:18:49;;;;;;;153.77;142.68;;;6.20;99.90;;;;;;12322935;28;20400;-35
2023/12/21 15:24:51;;;;;;;159.55;147.93;;;6.10;99.90;;;;;;12325048;28;20043;-35
2023/12/21 15:30:53;;;;;;;168.65;157.05;;;6.20;99.90;;;;;;12327961;28;20051;-35
2023/12/21 15:36:55;;;;;;;203.23;189.73;;;6.20;99.90;;;;;;12335724;28;20495;-35
2023/12/21 15:42:57;;;;;;;222.48;207.50;;;6.20;99.90;;;;;;12319321;28;20050;-35
2023/12/21 15:48:59;;;;;;;273.98;255.77;;;5.90;99.90;;;;;;12325504;28;20047;-35
2023/12/21 15:55:01;;;;;;;590.35;546.20;;;5.20;99.90;;;;;;12330512;28;20047;-34
2023/12/21 16:01:03;;;;;;;439.88;407.92;;;4.90;99.90;;;;;;12334787;28;20094;-34
2023/12/21 16:07:06;;;;;;;360.25;334.08;;;4.90;99.90;;;;;;12330263;28;20407;-34
2023/12/21 16:13:08;;;;;;;310.77;287.15;;;5.10;99.90;;;;;;12334848;28;20119;-35
2023/12/21 16:19:10;;;;;;;215.57;197.95;;;5.10;99.90;;;;;;12315042;28;20380;-35
2023/12/21 16:25:12;;;;;;;164.32;150.05;;;5.30;99.90;;;;;;12333919;28;20455;-35
2023/12/21 16:31:14;;;;;;;156.18;142.88;;;5.60;99.90;;;;;;12339561;28;20050;-35
2023/12/21 16:37:16;;;;;;;122.88;112.93;;;5.70;99.90;;;;;;12340672;28;20066;-34
2023/12/21 16:43:18;;;;;;;123.57;113.30;;;5.90;99.90;;;;;;12335030;28;20081;-35
2023/12/21 16:49:20;;;;;;;118.05;107.80;;;5.90;99.90;;;;;;12320201;28;20055;-34
2023/12/21 16:55:22;;;;;;;116.15;106.20;;;5.80;99.90;;;;;;12327219;28;20050;-35
2023/12/21 17:01:24;;;;;;;111.63;102.35;;;5.70;99.90;;;;;;12320370;28;20184;-34
2023/12/21 17:07:26;;;;;;;111.63;101.95;;;5.90;99.90;;;;;;12324264;28;20799;-35
2023/12/21 17:13:28;;;;;;;109.50;100.32;;;5.90;99.90;;;;;;12331166;28;20065;-35
2023/12/21 17:19:30;;;;;;;103.68;95.13;;;5.90;99.90;;;;;;12316869;28;20057;-35
2023/12/21 17:25:32;;;;;;;113.00;102.85;;;6.00;99.90;;;;;;12317812;28;20054;-35
2023/12/21 17:31:34;;;;;;;109.97;100.40;;;6.00;99.90;;;;;;12323274;28;20046;-34
2023/12/21 17:37:36;;;;;;;106.95;97.47;;;5.90;99.90;;;;;;12321459;28;20111;-35
2023/12/21 17:43:43;;;;;;;109.53;100.40;;;6.00;99.90;;;;;;12327993;28;20055;-35
2023/12/21 17:49:46;;;;;;;180.38;164.60;;;5.90;99.90;;;;;;12327176;28;20043;-34
2023/12/21 17:55:48;;;;;;;374.13;346.90;;;5.40;99.90;;;;;;12339465;28;20090;-34
2023/12/21 18:01:49;;;;;;;456.80;424.02;;;5.20;99.90;;;;;;12341085;28;20046;-34
2023/12/21 18:07:51;;;;;;;468.02;433.55;;;5.00;99.90;;;;;;12323426;28;20054;-34
2023/12/21 18:13:53;;;;;;;454.65;422.00;;;5.10;99.90;;;;;;12338223;28;20055;-35
2023/12/21 18:19:55;;;;;;;395.13;366.48;;;5.00;99.90;;;;;;12328760;28;20494;-35
2023/12/21 18:25:57;;;;;;;255.75;236.35;;;5.10;99.90;;;;;;12336574;28;20118;-35
2023/12/21 18:31:59;;;;;;;217.02;198.75;;;5.20;99.90;;;;;;12328699;28;20053;-35
2023/12/21 18:38:01;;;;;;;170.43;155.63;;;5.20;99.90;;;;;;12335917;28;20055;-34
2023/12/21 18:44:05;;;;;;;151.95;138.90;;;5.30;99.90;;;;;;12328682;28;20046;-34
2023/12/21 18:50:08;;;;;;;135.03;123.50;;;5.40;99.90;;;;;;12334516;28;20079;-34
2023/12/21 18:56:09;;;;;;;126.65;115.72;;;5.40;99.90;;;;;;12347379;28;20050;-34
2023/12/21 19:02:13;;;;;;;127.75;116.53;;;5.40;99.90;;;;;;12334488;28;20503;-35
2023/12/21 19:08:15;;;;;;;121.53;110.37;;;5.40;99.90;;;;;;12337746;28;20051;-34
2023/12/21 19:14:17;;;;;;;118.95;108.97;;;5.40;99.90;;;;;;12332299;28;20090;-35
2023/12/21 19:20:19;;;;;;;126.75;115.88;;;5.40;99.90;;;;;;12331467;28;20054;-35
2023/12/21 19:26:22;;;;;;;96.05;88.82;;;5.30;99.90;;;;;;12340384;28;20047;-34
2023/12/21 19:32:24;;;;;;;96.63;90.20;;;5.60;99.90;;;;;;12325662;28;20116;-34
2023/12/21 19:38:26;;;;;;;101.65;93.40;;;5.80;99.90;;;;;;12324340;28;20039;-35
2023/12/21 19:44:28;;;;;;;161.40;147.40;;;5.80;99.90;;;;;;12334506;28;20082;-35
2023/12/21 19:50:30;;;;;;;191.45;173.80;;;5.50;99.90;;;;;;12329702;28;20074;-35
2023/12/21 19:56:34;;;;;;;200.85;183.30;;;5.20;99.90;;;;;;12331429;28;20511;-35
2023/12/21 20:02:36;;;;;;;157.20;142.55;;;5.00;99.90;;;;;;12329448;28;20043;-35
2023/12/21 20:08:38;;;;;;;132.10;120.30;;;4.90;99.90;;;;;;12325222;28;20055;-34
2023/12/21 20:14:40;;;;;;;107.68;98.65;;;5.10;99.90;;;;;;12334109;28;20074;-34
2023/12/21 20:20:42;;;;;;;113.88;104.28;;;5.30;99.90;;;;;;12313330;28;20082;-35
2023/12/21 20:26:44;;;;;;;85.43;78.78;;;5.30;99.90;;;;;;12314810;28;21056;-35
2023/12/21 20:32:48;;;;;;;75.55;69.93;;;5.50;99.90;;;;;;12307099;28;20051;-35
2023/12/21 20:38:49;;;;;;;67.07;62.00;;;5.70;99.90;;;;;;12320777;28;20137;-35
2023/12/21 20:44:51;;;;;;;81.43;75.22;;;5.70;99.90;;;;;;12318655;28;20047;-35
2023/12/21 20:50:55;;;;;;;55.25;51.17;;;5.60;99.90;;;;;;12327581;28;20101;-34
2023/12/21 20:56:58;;;;;;;59.07;54.77;;;5.70;99.90;;;;;;12336025;28;20077;-34
2023/12/21 21:03:00;;;;;;;81.40;74.93;;;5.70;99.90;;;;;;12325944;28;20082;-34
2023/12/21 21:09:03;;;;;;;77.22;71.45;;;5.60;99.90;;;;;;12326533;28;20098;-34
2023/12/21 21:15:05;;;;;;;67.47;62.17;;;5.50;99.90;;;;;;12321816;28;20051;-34
2023/12/21 21:21:07;;;;;;;58.13;53.60;;;5.70;99.90;;;;;;12322110;28;20530;-34
2023/12/21 21:27:09;;;;;;;68.10;62.65;;;5.70;99.90;;;;;;12325681;28;20419;-34
2023/12/21 21:33:11;;;;;;;63.08;57.75;;;5.70;99.90;;;;;;12318960;28;20176;-34
2023/12/21 21:39:12;;;;;;;80.05;74.45;;;5.70;99.90;;;;;;12317175;28;20574;-34
2023/12/21 21:45:14;;;;;;;63.08;58.30;;;5.70;99.90;;;;;;12314161;28;20576;-34
2023/12/21 21:51:16;;;;;;;58.35;54.03;;;5.70;99.90;;;;;;12320807;28;20086;-34
2023/12/21 21:57:19;;;;;;;60.60;55.75;;;5.70;99.90;;;;;;12334506;28;20129;-34
2023/12/21 22:03:21;;;;;;;61.08;56.42;;;5.50;99.90;;;;;;12322689;28;20074;-35
2023/12/21 22:09:22;;;;;;;58.67;53.90;;;5.50;99.90;;;;;;12311910;28;20047;-35
2023/12/21 22:15:24;;;;;;;56.60;52.20;;;5.50;99.90;;;;;;12312721;28;20093;-34
2023/12/21 22:21:29;;;;;;;64.90;59.65;;;5.50;99.90;;;;;;12317763;28;20062;-34
2023/12/21 22:27:31;;;;;;;74.97;69.55;;;5.60;99.90;;;;;;12319530;28;20039;-34
2023/12/21 22:33:33;;;;;;;81.20;75.18;;;5.50;99.90;;;;;;12310978;28;20182;-34
2023/12/21 22:39:36;;;;;;;79.47;73.68;;;5.50;99.90;;;;;;12321405;28;20054;-34
2023/12/21 22:45:38;;;;;;;85.55;78.97;;;5.50;99.90;;;;;;12329223;28;20419;-34
2023/12/21 22:51:43;;;;;;;80.97;75.50;;;5.40;99.90;;;;;;12336120;28;20047;-34
2023/12/21 22:57:44;;;;;;;82.47;76.43;;;5.60;99.90;;;;;;12330377;28;20098;-34
2023/12/21 23:03:46;;;;;;;90.93;84.60;;;5.60;99.90;;;;;;12330635;28;20086;-34
2023/12/21 23:09:48;;;;;;;84.43;78.40;;;5.60;99.90;;;;;;12325450;28;20059;-34
2023/12/21 23:15:50;;;;;;;90.50;83.57;;;5.50;99.90;;;;;;12331094;28;20086;-34
2023/12/21 23:21:52;;;;;;;88.85;82.72;;;5.50;99.90;;;;;;12335094;28;20150;-34
2023/12/21 23:27:54;;;;;;;110.00;101.13;;;5.60;99.90;;;;;;12325322;28;20510;-34
2023/12/21 23:33:56;;;;;;;104.47;97.18;;;5.50;99.90;;;;;;12328373;28;20093;-34
2023/12/21 23:39:59;;;;;;;104.60;96.32;;;5.60;99.90;;;;;;12330558;28;20100;-34
2023/12/21 23:46:11;;;;;;;108.47;100.60;;;5.60;99.90;;;;;;12349228;28;20105;-34
2023/12/21 23:52:12;;;;;;;115.18;106.40;;;5.50;99.90;;;;;;12364306;28;20056;-34
2023/12/21 23:58:14;;;;;;;121.38;112.13;;;5.50;99.90;;;;;;12332967;28;20423;-34
